RON091 ANYN-YBBN
Flight info
| Callsign | RON091 |
|---|---|
| Flight time | 1h 17m |
| Altitude | 36000 |
| Route | DCT NI A598 MORNA DCT KAGLI DCT IGBED/N0449F380 DCT IKODA A598 PUGEL DCT FLATY DCT ATROP H224 TEBOT TEBOT2A |
| Aircraft | B738/M-SDE2E3FGHIRWXY/LB1 |
Departure
| Time | 2026-05-07 10:35 |
|---|---|
| Airport | Nauru International Airport (ANYN) |
Arrival
| Time | 2026-05-07 11:52 |
|---|---|
| Airport | Brisbane International Airport (YBBN) |
| Time | Latitude | Longitude | Altitude | Speed | Heading |
|---|---|---|---|---|---|
| 2026-05-07 10:24 | -0.54406 | 166.91662 | 31 ft | 0 kts | 39° |
| 2026-05-07 10:26 | -0.54417 | 166.91656 | 30 ft | 2 kts | 7° |
| 2026-05-07 10:27 | -0.54429 | 166.91657 | 30 ft | 3 kts | 342° |
| 2026-05-07 10:27 | -0.54441 | 166.91665 | 30 ft | 0 kts | 314° |
| 2026-05-07 10:31 | -0.54439 | 166.91663 | 30 ft | 1 kts | 314° |
| 2026-05-07 10:31 | -0.54433 | 166.91656 | 30 ft | 3 kts | 312° |
| 2026-05-07 10:31 | -0.54429 | 166.91640 | 30 ft | 6 kts | 269° |
| 2026-05-07 10:31 | -0.54477 | 166.91606 | 30 ft | 11 kts | 180° |
| 2026-05-07 10:32 | -0.54547 | 166.91671 | 30 ft | 20 kts | 129° |
| 2026-05-07 10:32 | -0.54649 | 166.91795 | 30 ft | 29 kts | 131° |
| 2026-05-07 10:32 | -0.54789 | 166.91956 | 33 ft | 31 kts | 131° |
| 2026-05-07 10:32 | -0.54934 | 166.92123 | 33 ft | 32 kts | 131° |
| 2026-05-07 10:33 | -0.55081 | 166.92293 | 29 ft | 33 kts | 130° |
| 2026-05-07 10:33 | -0.55225 | 166.92460 | 29 ft | 26 kts | 132° |
| 2026-05-07 10:33 | -0.55329 | 166.92587 | 27 ft | 19 kts | 119° |
| 2026-05-07 10:33 | -0.55362 | 166.92652 | 28 ft | 10 kts | 116° |
| 2026-05-07 10:34 | -0.55386 | 166.92700 | 28 ft | 5 kts | 116° |
| 2026-05-07 10:34 | -0.55474 | 166.92672 | 28 ft | 0 kts | 326° |
| 2026-05-07 10:34 | -0.55443 | 166.92651 | 27 ft | 8 kts | 328° |
| 2026-05-07 10:34 | -0.55384 | 166.92618 | 27 ft | 27 kts | 327° |
| 2026-05-07 10:35 | -0.55094 | 166.92310 | 29 ft | 94 kts | 310° |
| 2026-05-07 10:35 | -0.54538 | 166.91659 | 31 ft | 150 kts | 310° |
| 2026-05-07 10:35 | -0.53785 | 166.90785 | 314 ft | 172 kts | 311° |
| 2026-05-07 10:35 | -0.52996 | 166.89840 | 865 ft | 184 kts | 310° |
| 2026-05-07 10:36 | -0.52405 | 166.88676 | 1347 ft | 196 kts | 282° |
| 2026-05-07 10:36 | -0.52560 | 166.87271 | 1648 ft | 221 kts | 245° |
| 2026-05-07 10:36 | -0.53574 | 166.86065 | 2045 ft | 239 kts | 213° |
| 2026-05-07 10:36 | -0.55099 | 166.85276 | 2513 ft | 252 kts | 202° |
| 2026-05-07 10:37 | -0.56704 | 166.84557 | 3273 ft | 252 kts | 204° |
| 2026-05-07 10:37 | -0.58266 | 166.83747 | 3983 ft | 256 kts | 208° |
| 2026-05-07 10:37 | -0.63747 | 166.80174 | 6138 ft | 285 kts | 215° |
| 2026-05-07 10:37 | -0.70364 | 166.75554 | 9027 ft | 296 kts | 214° |
| 2026-05-07 10:38 | -0.77574 | 166.70570 | 10621 ft | 348 kts | 214° |
| 2026-05-07 10:38 | -0.85743 | 166.64921 | 12998 ft | 363 kts | 214° |
| 2026-05-07 10:38 | -0.94195 | 166.59078 | 15187 ft | 376 kts | 214° |
| 2026-05-07 10:38 | -1.02966 | 166.53016 | 17176 ft | 389 kts | 213° |
| 2026-05-07 10:39 | -1.12010 | 166.46765 | 18932 ft | 400 kts | 213° |
| 2026-05-07 10:39 | -1.28416 | 166.35410 | 21670 ft | 418 kts | 213° |
| 2026-05-07 10:39 | -1.47978 | 166.21895 | 24379 ft | 436 kts | 213° |
| 2026-05-07 10:39 | -1.68002 | 166.08056 | 26598 ft | 450 kts | 213° |
| 2026-05-07 10:40 | -1.88978 | 165.93551 | 28504 ft | 463 kts | 213° |
| 2026-05-07 10:40 | -2.10425 | 165.78715 | 30123 ft | 475 kts | 213° |
| 2026-05-07 10:40 | -2.32397 | 165.63505 | 31749 ft | 480 kts | 213° |
| 2026-05-07 10:40 | -2.54243 | 165.48375 | 33585 ft | 474 kts | 213° |
| 2026-05-07 10:41 | -2.75882 | 165.33389 | 34929 ft | 470 kts | 213° |
| 2026-05-07 10:41 | -2.90758 | 165.23076 | 35787 ft | 468 kts | 213° |
| 2026-05-07 10:41 | -3.07419 | 165.12486 | 35879 ft | 481 kts | 206° |
| 2026-05-07 10:42 | -3.31636 | 164.99671 | 35873 ft | 489 kts | 207° |
| 2026-05-07 10:42 | -3.54294 | 164.87485 | 35870 ft | 489 kts | 207° |
| 2026-05-07 10:43 | -3.78278 | 164.74579 | 35873 ft | 490 kts | 207° |
| 2026-05-07 10:43 | -4.02316 | 164.61636 | 35868 ft | 490 kts | 207° |
| 2026-05-07 10:44 | -4.26236 | 164.48747 | 35871 ft | 490 kts | 207° |
| 2026-05-07 10:44 | -4.50330 | 164.35756 | 35871 ft | 491 kts | 207° |
| 2026-05-07 10:45 | -4.74450 | 164.22741 | 35867 ft | 491 kts | 207° |
| 2026-05-07 10:45 | -4.98391 | 164.09811 | 35869 ft | 491 kts | 207° |
| 2026-05-07 10:46 | -5.22567 | 163.96744 | 35870 ft | 492 kts | 207° |
| 2026-05-07 10:46 | -5.42656 | 163.85878 | 35869 ft | 493 kts | 207° |
| 2026-05-07 10:47 | -5.70789 | 163.70646 | 35871 ft | 494 kts | 207° |
| 2026-05-07 10:47 | -5.95025 | 163.57511 | 35872 ft | 495 kts | 207° |
| 2026-05-07 10:48 | -6.15184 | 163.46574 | 35873 ft | 495 kts | 207° |
| 2026-05-07 10:48 | -6.39495 | 163.33373 | 35876 ft | 496 kts | 207° |
| 2026-05-07 10:49 | -6.63819 | 163.20151 | 35873 ft | 496 kts | 208° |
| 2026-05-07 10:49 | -6.87921 | 163.07034 | 35867 ft | 493 kts | 208° |
| 2026-05-07 10:50 | -7.12089 | 162.93866 | 35867 ft | 492 kts | 208° |
| 2026-05-07 10:50 | -7.36422 | 162.81141 | 35866 ft | 491 kts | 205° |
| 2026-05-07 10:51 | -7.61006 | 162.69235 | 35868 ft | 488 kts | 206° |
| 2026-05-07 10:51 | -7.85276 | 162.57421 | 35870 ft | 486 kts | 206° |
| 2026-05-07 10:52 | -8.09623 | 162.45553 | 35870 ft | 485 kts | 206° |
| 2026-05-07 10:52 | -8.23278 | 162.38890 | 35871 ft | 483 kts | 206° |
| 2026-05-07 10:53 | -8.45524 | 162.28024 | 35873 ft | 482 kts | 206° |
| 2026-05-07 10:53 | -8.69672 | 162.16213 | 35877 ft | 481 kts | 207° |
| 2026-05-07 10:54 | -8.93794 | 162.04398 | 35877 ft | 480 kts | 207° |
| 2026-05-07 10:54 | -9.17852 | 161.92596 | 35884 ft | 480 kts | 207° |
| 2026-05-07 10:55 | -9.41692 | 161.80885 | 35885 ft | 478 kts | 207° |
| 2026-05-07 10:55 | -9.65651 | 161.69095 | 35888 ft | 477 kts | 207° |
| 2026-05-07 10:56 | -9.89556 | 161.57315 | 35889 ft | 477 kts | 207° |
| 2026-05-07 10:56 | -10.13238 | 161.45624 | 35894 ft | 478 kts | 207° |
| 2026-05-07 10:57 | -10.36978 | 161.33888 | 35898 ft | 477 kts | 207° |
| 2026-05-07 10:57 | -10.60826 | 161.22077 | 35894 ft | 476 kts | 207° |
| 2026-05-07 10:58 | -10.83732 | 161.08548 | 35897 ft | 474 kts | 213° |
| 2026-05-07 10:58 | -11.06208 | 160.94790 | 35904 ft | 474 kts | 213° |
| 2026-05-07 10:59 | -11.28872 | 160.80889 | 35909 ft | 474 kts | 213° |
| 2026-05-07 10:59 | -11.51490 | 160.66990 | 35907 ft | 474 kts | 213° |
| 2026-05-07 11:00 | -11.73950 | 160.53162 | 35913 ft | 473 kts | 213° |
| 2026-05-07 11:00 | -11.96460 | 160.39276 | 35911 ft | 472 kts | 213° |
| 2026-05-07 11:01 | -12.18985 | 160.25354 | 35916 ft | 471 kts | 213° |
| 2026-05-07 11:01 | -12.41468 | 160.11429 | 35922 ft | 471 kts | 213° |
| 2026-05-07 11:02 | -12.63905 | 159.97505 | 35925 ft | 471 kts | 213° |
| 2026-05-07 11:02 | -12.86236 | 159.83618 | 35927 ft | 471 kts | 213° |
| 2026-05-07 11:03 | -13.08649 | 159.69651 | 35929 ft | 471 kts | 213° |
| 2026-05-07 11:03 | -13.31033 | 159.55672 | 35930 ft | 470 kts | 213° |
| 2026-05-07 11:04 | -13.53238 | 159.41774 | 35934 ft | 469 kts | 213° |
| 2026-05-07 11:04 | -13.75571 | 159.27765 | 35941 ft | 469 kts | 214° |
| 2026-05-07 11:05 | -13.97751 | 159.13821 | 35941 ft | 469 kts | 214° |
| 2026-05-07 11:05 | -14.20047 | 158.99772 | 35940 ft | 468 kts | 214° |
| 2026-05-07 11:06 | -14.42270 | 158.85736 | 35942 ft | 468 kts | 214° |
| 2026-05-07 11:06 | -14.64376 | 158.71740 | 35953 ft | 468 kts | 214° |
| 2026-05-07 11:07 | -14.86576 | 158.57652 | 35950 ft | 467 kts | 214° |
| 2026-05-07 11:07 | -15.08770 | 158.43533 | 35952 ft | 467 kts | 214° |
| 2026-05-07 11:08 | -15.30782 | 158.29494 | 35960 ft | 467 kts | 214° |
| 2026-05-07 11:08 | -15.52925 | 158.15337 | 35963 ft | 466 kts | 215° |
| 2026-05-07 11:09 | -15.75035 | 158.01165 | 35965 ft | 466 kts | 215° |
| 2026-05-07 11:09 | -15.97088 | 157.86993 | 35970 ft | 465 kts | 215° |
| 2026-05-07 11:10 | -16.18941 | 157.72912 | 35973 ft | 464 kts | 216° |
| 2026-05-07 11:10 | -16.40861 | 157.58752 | 35977 ft | 463 kts | 216° |
| 2026-05-07 11:11 | -16.62921 | 157.44759 | 35980 ft | 467 kts | 208° |
| 2026-05-07 11:11 | -16.87529 | 157.35386 | 35984 ft | 470 kts | 204° |
| 2026-05-07 11:12 | -17.12071 | 157.26150 | 35989 ft | 471 kts | 205° |
| 2026-05-07 11:12 | -17.36715 | 157.16850 | 35994 ft | 471 kts | 205° |
| 2026-05-07 11:13 | -17.63623 | 157.06664 | 35997 ft | 470 kts | 205° |
| 2026-05-07 11:13 | -17.88129 | 156.97360 | 36002 ft | 470 kts | 205° |
| 2026-05-07 11:14 | -18.12782 | 156.87972 | 36006 ft | 470 kts | 206° |
| 2026-05-07 11:14 | -18.37411 | 156.78565 | 36006 ft | 470 kts | 206° |
| 2026-05-07 11:15 | -18.61998 | 156.69146 | 36012 ft | 470 kts | 206° |
| 2026-05-07 11:15 | -18.86583 | 156.59698 | 36014 ft | 469 kts | 206° |
| 2026-05-07 11:16 | -19.11017 | 156.50279 | 36020 ft | 469 kts | 206° |
| 2026-05-07 11:16 | -19.35598 | 156.40773 | 36022 ft | 469 kts | 206° |
| 2026-05-07 11:17 | -19.60026 | 156.31296 | 36021 ft | 469 kts | 207° |
| 2026-05-07 11:17 | -19.84694 | 156.21996 | 36019 ft | 476 kts | 199° |
| 2026-05-07 11:18 | -20.10510 | 156.16049 | 36019 ft | 477 kts | 199° |
| 2026-05-07 11:18 | -20.36503 | 156.10036 | 36029 ft | 477 kts | 199° |
| 2026-05-07 11:19 | -20.62480 | 156.04004 | 36029 ft | 477 kts | 200° |
| 2026-05-07 11:19 | -20.88470 | 155.97949 | 36031 ft | 477 kts | 200° |
| 2026-05-07 11:20 | -21.14292 | 155.91912 | 36032 ft | 477 kts | 200° |
| 2026-05-07 11:20 | -21.40243 | 155.85822 | 36032 ft | 477 kts | 201° |
| 2026-05-07 11:21 | -21.66169 | 155.79716 | 36040 ft | 477 kts | 201° |
| 2026-05-07 11:21 | -21.92069 | 155.73594 | 36044 ft | 477 kts | 201° |
| 2026-05-07 11:22 | -22.18085 | 155.67422 | 36043 ft | 477 kts | 201° |
| 2026-05-07 11:22 | -22.43887 | 155.61278 | 36046 ft | 477 kts | 202° |
| 2026-05-07 11:23 | -22.69800 | 155.55083 | 36052 ft | 477 kts | 202° |
| 2026-05-07 11:23 | -22.95740 | 155.48858 | 36050 ft | 476 kts | 202° |
| 2026-05-07 11:24 | -23.21628 | 155.42621 | 36056 ft | 476 kts | 202° |
| 2026-05-07 11:24 | -23.47433 | 155.36379 | 36057 ft | 476 kts | 203° |
| 2026-05-07 11:25 | -23.73308 | 155.30095 | 36055 ft | 476 kts | 203° |
| 2026-05-07 11:25 | -23.99025 | 155.23824 | 36053 ft | 475 kts | 204° |
| 2026-05-07 11:26 | -24.24831 | 155.17505 | 36061 ft | 475 kts | 204° |
| 2026-05-07 11:26 | -24.50603 | 155.11168 | 36059 ft | 474 kts | 204° |
| 2026-05-07 11:27 | -24.76316 | 155.04819 | 36059 ft | 473 kts | 205° |
| 2026-05-07 11:27 | -25.02046 | 154.98439 | 36061 ft | 473 kts | 205° |
| 2026-05-07 11:28 | -25.27709 | 154.92049 | 36063 ft | 472 kts | 205° |
| 2026-05-07 11:28 | -25.40428 | 154.88588 | 36064 ft | 459 kts | 213° |
| 2026-05-07 11:28 | -25.51465 | 154.82369 | 36065 ft | 442 kts | 221° |
| 2026-05-07 11:29 | -25.72781 | 154.69147 | 36065 ft | 441 kts | 222° |
| 2026-05-07 11:29 | -25.94116 | 154.55839 | 36067 ft | 439 kts | 222° |
| 2026-05-07 11:30 | -26.12142 | 154.44555 | 35209 ft | 433 kts | 222° |
| 2026-05-07 11:30 | -26.14765 | 154.42907 | 34420 ft | 431 kts | 222° |
| 2026-05-07 11:30 | -26.17356 | 154.41283 | 33567 ft | 425 kts | 221° |
| 2026-05-07 11:31 | -26.19917 | 154.39676 | 32676 ft | 420 kts | 221° |
| 2026-05-07 11:31 | -26.22461 | 154.38074 | 31812 ft | 422 kts | 221° |
| 2026-05-07 11:31 | -26.25049 | 154.36430 | 30977 ft | 434 kts | 221° |
| 2026-05-07 11:31 | -26.27697 | 154.34752 | 30159 ft | 440 kts | 221° |
| 2026-05-07 11:32 | -26.32988 | 154.31434 | 28306 ft | 430 kts | 220° |
| 2026-05-07 11:32 | -26.36643 | 154.29140 | 27054 ft | 420 kts | 220° |
| 2026-05-07 11:32 | -26.41589 | 154.26024 | 25642 ft | 402 kts | 220° |
| 2026-05-07 11:33 | -26.46343 | 154.23025 | 24629 ft | 386 kts | 220° |
| 2026-05-07 11:33 | -26.50983 | 154.20079 | 23558 ft | 382 kts | 219° |
| 2026-05-07 11:33 | -26.55561 | 154.17180 | 22552 ft | 372 kts | 219° |
| 2026-05-07 11:33 | -26.60023 | 154.14352 | 21554 ft | 364 kts | 219° |
| 2026-05-07 11:34 | -26.64388 | 154.11582 | 20571 ft | 357 kts | 218° |
| 2026-05-07 11:34 | -26.68679 | 154.08855 | 19598 ft | 352 kts | 217° |
| 2026-05-07 11:34 | -26.72867 | 154.06191 | 18631 ft | 349 kts | 216° |
| 2026-05-07 11:34 | -26.77067 | 154.03521 | 17626 ft | 344 kts | 216° |
| 2026-05-07 11:35 | -26.81190 | 154.00901 | 16676 ft | 338 kts | 215° |
| 2026-05-07 11:35 | -26.85247 | 153.98319 | 15741 ft | 333 kts | 214° |
| 2026-05-07 11:35 | -26.89246 | 153.95772 | 14816 ft | 329 kts | 214° |
| 2026-05-07 11:35 | -26.91673 | 153.94022 | 14228 ft | 322 kts | 224° |
| 2026-05-07 11:36 | -26.93187 | 153.92214 | 13768 ft | 316 kts | 237° |
| 2026-05-07 11:36 | -26.94273 | 153.90109 | 13317 ft | 310 kts | 247° |
| 2026-05-07 11:36 | -26.95181 | 153.87933 | 12884 ft | 306 kts | 246° |
| 2026-05-07 11:36 | -26.96088 | 153.85791 | 12458 ft | 303 kts | 246° |
| 2026-05-07 11:37 | -26.96990 | 153.83671 | 12035 ft | 300 kts | 246° |
| 2026-05-07 11:37 | -26.97893 | 153.81549 | 11613 ft | 310 kts | 246° |
| 2026-05-07 11:37 | -26.98520 | 153.80069 | 11317 ft | 324 kts | 246° |
| 2026-05-07 11:37 | -26.99503 | 153.77748 | 10854 ft | 334 kts | 246° |
| 2026-05-07 11:38 | -27.00814 | 153.74663 | 10543 ft | 324 kts | 246° |
| 2026-05-07 11:38 | -27.01462 | 153.73140 | 10467 ft | 315 kts | 246° |
| 2026-05-07 11:38 | -27.02383 | 153.70971 | 10350 ft | 301 kts | 246° |
| 2026-05-07 11:38 | -27.03259 | 153.68908 | 10205 ft | 284 kts | 247° |
| 2026-05-07 11:39 | -27.04089 | 153.66949 | 10009 ft | 275 kts | 247° |
| 2026-05-07 11:39 | -27.04903 | 153.65018 | 9603 ft | 273 kts | 247° |
| 2026-05-07 11:39 | -27.05628 | 153.63063 | 9184 ft | 270 kts | 254° |
| 2026-05-07 11:39 | -27.06110 | 153.61037 | 8777 ft | 268 kts | 257° |
| 2026-05-07 11:40 | -27.06573 | 153.59022 | 8414 ft | 265 kts | 256° |
| 2026-05-07 11:40 | -27.07036 | 153.57035 | 8070 ft | 262 kts | 256° |
| 2026-05-07 11:40 | -27.07494 | 153.55073 | 7745 ft | 258 kts | 256° |
| 2026-05-07 11:40 | -27.07946 | 153.53138 | 7409 ft | 255 kts | 256° |
| 2026-05-07 11:41 | -27.08392 | 153.51227 | 7089 ft | 252 kts | 255° |
| 2026-05-07 11:41 | -27.08690 | 153.49945 | 6878 ft | 250 kts | 255° |
| 2026-05-07 11:41 | -27.09058 | 153.48368 | 6614 ft | 248 kts | 255° |
| 2026-05-07 11:41 | -27.09491 | 153.46502 | 6280 ft | 246 kts | 255° |
| 2026-05-07 11:42 | -27.09921 | 153.44652 | 5956 ft | 244 kts | 255° |
| 2026-05-07 11:42 | -27.10346 | 153.42819 | 5644 ft | 241 kts | 254° |
| 2026-05-07 11:42 | -27.10768 | 153.41002 | 5338 ft | 241 kts | 254° |
| 2026-05-07 11:42 | -27.11189 | 153.39191 | 5170 ft | 240 kts | 254° |
| 2026-05-07 11:43 | -27.11611 | 153.37355 | 5083 ft | 240 kts | 254° |
| 2026-05-07 11:43 | -27.12021 | 153.35584 | 5023 ft | 227 kts | 253° |
| 2026-05-07 11:43 | -27.12508 | 153.33954 | 4967 ft | 214 kts | 244° |
| 2026-05-07 11:43 | -27.13148 | 153.32480 | 4777 ft | 209 kts | 243° |
| 2026-05-07 11:44 | -27.13762 | 153.31051 | 4661 ft | 197 kts | 243° |
| 2026-05-07 11:44 | -27.14327 | 153.29721 | 4605 ft | 184 kts | 243° |
| 2026-05-07 11:44 | -27.14846 | 153.28494 | 4550 ft | 167 kts | 243° |
| 2026-05-07 11:44 | -27.15323 | 153.27364 | 4455 ft | 153 kts | 242° |
| 2026-05-07 11:45 | -27.15758 | 153.26333 | 4403 ft | 137 kts | 242° |
| 2026-05-07 11:45 | -27.16314 | 153.25554 | 4272 ft | 124 kts | 216° |
| 2026-05-07 11:45 | -27.17168 | 153.25043 | 4223 ft | 151 kts | 207° |
| 2026-05-07 11:45 | -27.18120 | 153.24543 | 4091 ft | 151 kts | 208° |
| 2026-05-07 11:46 | -27.19057 | 153.24011 | 3934 ft | 150 kts | 209° |
| 2026-05-07 11:46 | -27.19975 | 153.23485 | 3769 ft | 147 kts | 208° |
| 2026-05-07 11:46 | -27.20885 | 153.22963 | 3584 ft | 145 kts | 208° |
| 2026-05-07 11:46 | -27.21739 | 153.22474 | 3425 ft | 131 kts | 208° |
| 2026-05-07 11:47 | -27.22480 | 153.22049 | 3274 ft | 120 kts | 208° |
| 2026-05-07 11:47 | -27.23216 | 153.21626 | 3120 ft | 113 kts | 208° |
| 2026-05-07 11:47 | -27.23931 | 153.21215 | 2976 ft | 116 kts | 209° |
| 2026-05-07 11:47 | -27.24635 | 153.20812 | 2829 ft | 114 kts | 209° |
| 2026-05-07 11:48 | -27.25337 | 153.20409 | 2679 ft | 112 kts | 209° |
| 2026-05-07 11:48 | -27.26031 | 153.20011 | 2528 ft | 111 kts | 208° |
| 2026-05-07 11:48 | -27.26722 | 153.19613 | 2386 ft | 113 kts | 209° |
| 2026-05-07 11:48 | -27.27422 | 153.19212 | 2233 ft | 112 kts | 209° |
| 2026-05-07 11:49 | -27.28116 | 153.18814 | 2089 ft | 112 kts | 208° |
| 2026-05-07 11:49 | -27.28806 | 153.18418 | 1944 ft | 111 kts | 210° |
| 2026-05-07 11:49 | -27.29479 | 153.18031 | 1794 ft | 110 kts | 210° |
| 2026-05-07 11:49 | -27.30174 | 153.17632 | 1645 ft | 112 kts | 210° |
| 2026-05-07 11:50 | -27.30867 | 153.17234 | 1491 ft | 113 kts | 209° |
| 2026-05-07 11:50 | -27.31572 | 153.16829 | 1344 ft | 113 kts | 210° |
| 2026-05-07 11:50 | -27.32270 | 153.16429 | 1185 ft | 113 kts | 211° |
| 2026-05-07 11:50 | -27.32990 | 153.16013 | 1032 ft | 120 kts | 210° |
| 2026-05-07 11:51 | -27.33745 | 153.15580 | 873 ft | 124 kts | 211° |
| 2026-05-07 11:51 | -27.34503 | 153.15145 | 711 ft | 119 kts | 210° |
| 2026-05-07 11:51 | -27.35257 | 153.14710 | 565 ft | 127 kts | 212° |
| 2026-05-07 11:51 | -27.36041 | 153.14261 | 373 ft | 128 kts | 210° |
| 2026-05-07 11:52 | -27.36839 | 153.13802 | 214 ft | 127 kts | 211° |
| 2026-05-07 11:52 | -27.37594 | 153.13369 | 49 ft | 122 kts | 211° |
| 2026-05-07 11:52 | -27.38178 | 153.13009 | 20 ft | 61 kts | 210° |
| 2026-05-07 11:52 | -27.38437 | 153.12850 | 20 ft | 27 kts | 235° |
| 2026-05-07 11:53 | -27.38427 | 153.12727 | 19 ft | 2 kts | 295° |
| 2026-05-07 11:54 | -27.38417 | 153.12703 | 19 ft | 9 kts | 295° |
| 2026-05-07 11:54 | -27.38379 | 153.12619 | 18 ft | 12 kts | 294° |
| 2026-05-07 11:54 | -27.38406 | 153.12529 | 18 ft | 15 kts | 212° |
| 2026-05-07 11:55 | -27.38514 | 153.12466 | 17 ft | 20 kts | 208° |
| 2026-05-07 11:55 | -27.38649 | 153.12389 | 17 ft | 23 kts | 205° |
| 2026-05-07 11:55 | -27.38801 | 153.12302 | 17 ft | 23 kts | 208° |
| 2026-05-07 11:55 | -27.38938 | 153.12223 | 17 ft | 22 kts | 207° |
| 2026-05-07 11:56 | -27.39085 | 153.12141 | 17 ft | 25 kts | 207° |
| 2026-05-07 11:56 | -27.39243 | 153.12048 | 18 ft | 26 kts | 207° |
| 2026-05-07 11:56 | -27.39389 | 153.11968 | 18 ft | 24 kts | 207° |
| 2026-05-07 11:56 | -27.39533 | 153.11883 | 18 ft | 25 kts | 206° |
| 2026-05-07 11:57 | -27.39692 | 153.11792 | 17 ft | 27 kts | 206° |
| 2026-05-07 11:57 | -27.39857 | 153.11698 | 19 ft | 27 kts | 206° |
| 2026-05-07 11:57 | -27.40031 | 153.11599 | 17 ft | 29 kts | 207° |
| 2026-05-07 11:57 | -27.40197 | 153.11502 | 17 ft | 13 kts | 213° |
| 2026-05-07 11:58 | -27.40200 | 153.11411 | 19 ft | 14 kts | 297° |
| 2026-05-07 11:58 | -27.40196 | 153.11301 | 17 ft | 15 kts | 280° |
| 2026-05-07 11:58 | -27.40173 | 153.11245 | 17 ft | 1 kts | 296° |
| 2026-05-07 11:58 | -27.40173 | 153.11244 | 17 ft | 0 kts | 296° |
| 2026-05-07 11:59 | -27.40172 | 153.11241 | 17 ft | 8 kts | 296° |
| 2026-05-07 12:00 | -27.40168 | 153.11233 | 17 ft | 0 kts | 296° |